Time;durP1;ratioP1;P1;durP2;ratioP2;P2;SDS_P1;SDS_P2;PMS_P1;PMS_P2;Temp;Humidity;BMP_temperature;BMP_pressure;BME280_temperature;BME280_humidity;BME280_pressure;Samples;Min_cycle;Max_cycle;Signal;HPM_P1;HPM_P2
2024/03/15 00:00:14;;;;;;;6.80;3.40;;;;;;;7.57;100.00;95622.44;1039695;28;20021;-68
2024/03/15 00:00:44;;;;;;;7.38;3.47;;;;;;;7.57;100.00;95624.25;1040050;28;20025;-69
2024/03/15 00:01:14;;;;;;;5.50;3.17;;;;;;;7.56;100.00;95626.09;1043479;28;20025;-68
2024/03/15 00:01:45;;;;;;;4.72;3.00;;;;;;;7.53;100.00;95621.34;1035611;28;20042;-67
2024/03/15 00:02:15;;;;;;;4.35;3.20;;;;;;;7.52;100.00;95624.22;1035734;28;20081;-69
2024/03/15 00:02:46;;;;;;;4.70;2.92;;;;;;;7.51;100.00;95622.63;1031476;28;20388;-69
2024/03/15 00:03:16;;;;;;;4.80;3.13;;;;;;;7.49;100.00;95619.50;1027412;28;20031;-69
2024/03/15 00:03:47;;;;;;;3.78;3.13;;;;;;;7.50;100.00;95631.50;1027628;28;20045;-68
2024/03/15 00:04:17;;;;;;;2.95;2.55;;;;;;;7.47;100.00;95619.72;1027552;28;20027;-69
2024/03/15 00:04:48;;;;;;;6.65;3.35;;;;;;;7.46;100.00;95617.38;1031356;28;20077;-69
2024/03/15 00:05:21;;;;;;;6.00;2.90;;;;;;;7.49;100.00;95627.31;1027674;28;20414;-69
2024/03/15 00:05:51;;;;;;;3.75;2.75;;;;;;;7.46;100.00;95630.41;1031849;28;20039;-67
2024/03/15 00:06:21;;;;;;;4.13;3.20;;;;;;;7.44;100.00;95630.66;1031550;28;20022;-69
2024/03/15 00:06:52;;;;;;;4.07;3.10;;;;;;;7.40;100.00;95621.75;1027280;28;20046;-71
2024/03/15 00:07:22;;;;;;;4.65;2.80;;;;;;;7.38;100.00;95631.66;1027254;28;20130;-68
2024/03/15 00:07:53;;;;;;;2.90;2.53;;;;;;;7.36;100.00;95633.69;1027071;28;20037;-67
2024/03/15 00:08:23;;;;;;;4.97;2.83;;;;;;;7.35;100.00;95636.56;1033366;28;20081;-68
2024/03/15 00:08:55;;;;;;;4.47;3.08;;;;;;;7.35;100.00;95636.56;1035689;28;20026;-68
2024/03/15 00:09:25;;;;;;;4.72;3.10;;;;;;;7.36;100.00;95625.09;1039920;28;20025;-66
2024/03/15 00:09:56;;;;;;;4.47;3.20;;;;;;;7.33;100.00;95629.75;1036084;28;20042;-68
2024/03/15 00:10:26;;;;;;;4.63;3.15;;;;;;;7.31;100.00;95631.06;1035766;28;20029;-69
2024/03/15 00:10:57;;;;;;;3.03;2.72;;;;;;;7.33;100.00;95637.59;1031434;28;20034;-69
2024/03/15 00:11:30;;;;;;;3.00;2.70;;;;;;;7.37;100.00;95642.31;1031486;28;20037;-69
2024/03/15 00:12:00;;;;;;;6.43;2.95;;;;;;;7.38;100.00;95639.47;1039308;28;20026;-68
2024/03/15 00:12:33;;;;;;;3.83;2.75;;;;;;;7.38;100.00;95643.88;1035932;28;20033;-68
2024/03/15 00:13:03;;;;;;;4.75;2.72;;;;;;;7.35;100.00;95636.56;1035328;28;20134;-69
2024/03/15 00:13:34;;;;;;;3.97;2.88;;;;;;;7.35;100.00;95634.75;1035403;28;20045;-68
2024/03/15 00:14:05;;;;;;;3.17;2.20;;;;;;;7.32;100.00;95641.22;1035414;28;20045;-68
2024/03/15 00:14:36;;;;;;;3.58;2.70;;;;;;;7.31;100.00;95644.88;1031690;28;20084;-69
2024/03/15 00:15:09;;;;;;;3.85;2.60;;;;;;;7.31;100.00;95644.88;1034262;28;20025;-68
2024/03/15 00:15:39;;;;;;;3.58;2.55;;;;;;;7.31;100.00;95639.66;1035758;28;20134;-68
2024/03/15 00:16:11;;;;;;;3.08;2.53;;;;;;;7.28;100.00;95640.16;1036096;28;20145;-68
2024/03/15 00:16:42;;;;;;;5.90;2.80;;;;;;;7.26;100.00;95647.41;1034952;28;20519;-70
2024/03/15 00:17:12;;;;;;;4.97;2.60;;;;;;;7.27;100.00;95635.16;1030729;28;20030;-69
2024/03/15 00:17:43;;;;;;;4.30;2.63;;;;;;;7.22;100.00;95635.13;1025838;28;20106;-68
2024/03/15 00:18:17;;;;;;;3.97;2.78;;;;;;;7.15;100.00;95617.03;1026844;28;20023;-68
2024/03/15 00:18:47;;;;;;;5.45;2.90;;;;;;;7.27;100.00;95643.00;1031964;28;20041;-69
2024/03/15 00:19:17;;;;;;;3.90;2.50;;;;;;;7.24;100.00;95640.88;1035994;28;20037;-68
2024/03/15 00:19:48;;;;;;;3.90;2.70;;;;;;;7.26;100.00;95642.22;1035707;28;20087;-68
2024/03/15 00:20:18;;;;;;;3.17;2.67;;;;;;;7.25;100.00;95645.84;1039755;28;20045;-69
2024/03/15 00:20:49;;;;;;;3.60;2.17;;;;;;;7.19;100.00;95636.38;1039599;28;20108;-67
2024/03/15 00:21:19;;;;;;;5.30;2.70;;;;;;;7.22;100.00;95650.78;1035551;28;20036;-68
2024/03/15 00:21:50;;;;;;;3.80;2.50;;;;;;;7.21;100.00;95647.38;1035280;28;20037;-68
2024/03/15 00:22:23;;;;;;;7.13;2.80;;;;;;;7.20;100.00;95645.78;1031507;28;20022;-68
2024/03/15 00:22:53;;;;;;;3.47;2.53;;;;;;;7.16;100.00;95649.91;1027837;28;20026;-68
2024/03/15 00:23:24;;;;;;;4.38;2.63;;;;;;;7.15;100.00;95650.16;1031752;28;20057;-68
2024/03/15 00:23:54;;;;;;;4.93;2.88;;;;;;;7.15;100.00;95644.94;1035783;28;20061;-68
2024/03/15 00:24:25;;;;;;;6.32;2.67;;;;;;;7.08;100.00;95640.69;1040161;28;20041;-69
2024/03/15 00:24:55;;;;;;;3.97;2.75;;;;;;;7.10;100.00;95648.28;1039295;28;20433;-69
2024/03/15 00:25:26;;;;;;;5.57;2.80;;;;;;;7.08;100.00;95647.75;1031572;28;20030;-67
2024/03/15 00:25:58;;;;;;;2.90;2.40;;;;;;;7.05;100.00;95650.84;1031371;28;20030;-69
2024/03/15 00:26:28;;;;;;;5.15;2.90;;;;;;;7.02;100.00;95646.09;1031124;28;20645;-68
2024/03/15 00:26:59;;;;;;;3.55;2.55;;;;;;;6.98;100.00;95648.41;1031686;28;20026;-68
2024/03/15 00:27:30;;;;;;;3.55;2.25;;;;;;;6.94;100.00;95644.69;1031525;28;20084;-69
2024/03/15 00:28:02;;;;;;;3.97;2.85;;;;;;;7.00;100.00;95654.16;1034786;28;20065;-69
2024/03/15 00:28:32;;;;;;;5.10;2.70;;;;;;;6.99;100.00;95649.19;1039591;28;20155;-69
2024/03/15 00:29:03;;;;;;;4.82;2.78;;;;;;;6.97;100.00;95654.63;1037119;28;20033;-68
2024/03/15 00:29:33;;;;;;;4.78;2.70;;;;;;;6.96;100.00;95652.28;1039451;28;20487;-68
2024/03/15 00:30:05;;;;;;;2.92;2.38;;;;;;;6.93;100.00;95650.16;1035217;28;20101;-68
2024/03/15 00:30:35;;;;;;;5.18;2.88;;;;;;;6.96;100.00;95650.44;1030970;28;20077;-68
2024/03/15 00:31:07;;;;;;;5.18;2.50;;;;;;;6.93;100.00;95653.53;1031489;28;20483;-68
2024/03/15 00:31:40;;;;;;;3.08;2.50;;;;;;;6.90;100.00;95648.78;1033069;28;20026;-69
2024/03/15 00:32:10;;;;;;;3.42;2.70;;;;;;;6.91;100.00;95654.81;1035767;28;20022;-68
2024/03/15 00:32:41;;;;;;;4.82;2.50;;;;;;;6.88;100.00;95652.69;1039529;28;20556;-68
2024/03/15 00:33:12;;;;;;;2.72;2.45;;;;;;;6.83;100.00;95651.59;1035326;28;20026;-68
2024/03/15 00:33:43;;;;;;;2.95;2.42;;;;;;;6.81;100.00;95656.25;1035561;28;20087;-68
2024/03/15 00:34:14;;;;;;;4.28;2.95;;;;;;;6.75;100.00;95646.00;1031239;28;20088;-69
2024/03/15 00:34:45;;;;;;;3.30;2.70;;;;;;;6.81;100.00;95650.25;1034098;28;20026;-69
2024/03/15 00:35:15;;;;;;;3.08;2.47;;;;;;;6.79;100.00;95654.91;1039651;28;20033;-68
2024/03/15 00:35:46;;;;;;;2.67;2.42;;;;;;;6.77;100.00;95651.75;1039498;28;20041;-68
2024/03/15 00:36:19;;;;;;;3.03;2.50;;;;;;;6.80;100.00;95657.28;1043206;28;20036;-69
2024/03/15 00:36:49;;;;;;;3.78;2.85;;;;;;;6.81;100.00;95656.25;1039533;28;20435;-68
2024/03/15 00:37:20;;;;;;;5.20;2.83;;;;;;;6.79;100.00;95660.13;1039195;28;20025;-69
2024/03/15 00:37:50;;;;;;;3.83;2.97;;;;;;;6.79;100.00;95655.69;1041417;28;20037;-68
2024/03/15 00:38:21;;;;;;;5.82;2.72;;;;;;;6.79;100.00;95655.69;1034859;28;20053;-68
2024/03/15 00:38:52;;;;;;;3.97;2.63;;;;;;;6.77;100.00;95654.34;1039339;28;20383;-68
2024/03/15 00:39:23;;;;;;;3.10;2.72;;;;;;;6.78;100.00;95656.75;1036501;28;20091;-69
2024/03/15 00:39:53;;;;;;;5.38;2.65;;;;;;;6.73;100.00;95659.25;1039376;28;20076;-68
2024/03/15 00:40:24;;;;;;;4.03;2.78;;;;;;;6.71;100.00;95658.75;1035203;28;20049;-69
2024/03/15 00:40:54;;;;;;;5.05;3.00;;;;;;;6.66;100.00;95650.81;1027410;28;20026;-68
2024/03/15 00:41:24;;;;;;;3.58;2.78;;;;;;;6.70;100.00;95651.91;1027269;28;20496;-68
2024/03/15 00:41:56;;;;;;;3.72;2.80;;;;;;;6.70;100.00;95658.97;1027354;28;20480;-68
2024/03/15 00:42:28;;;;;;;3.88;2.83;;;;;;;6.74;100.00;95654.84;1027461;28;20057;-68
2024/03/15 00:43:00;;;;;;;3.47;2.70;;;;;;;6.73;100.00;95663.69;1034355;28;20081;-68
2024/03/15 00:43:30;;;;;;;8.45;2.75;;;;;;;6.71;100.00;95653.53;1031522;28;20033;-69
2024/03/15 00:44:01;;;;;;;6.50;3.10;;;;;;;6.67;100.00;95657.63;1027927;28;20031;-69
2024/03/15 00:44:31;;;;;;;6.05;2.88;;;;;;;6.64;100.00;95655.50;1031494;28;20027;-68
2024/03/15 00:45:02;;;;;;;3.78;2.70;;;;;;;6.67;100.00;95660.22;1026460;28;20042;-68
2024/03/15 00:45:32;;;;;;;4.55;3.22;;;;;;;6.66;100.00;95658.66;1035503;28;20022;-68
2024/03/15 00:46:03;;;;;;;5.28;3.28;;;;;;;6.65;100.00;95661.50;1031627;28;20030;-68
2024/03/15 00:46:35;;;;;;;3.95;2.88;;;;;;;6.66;100.00;95658.66;1035499;28;20538;-69
2024/03/15 00:47:06;;;;;;;6.85;2.97;;;;;;;6.63;100.00;95653.91;1031186;28;20026;-68
2024/03/15 00:47:36;;;;;;;6.25;3.15;;;;;;;6.61;100.00;95663.81;1031863;28;20101;-69
2024/03/15 00:48:09;;;;;;;6.18;2.78;;;;;;;6.60;100.00;95660.38;1033548;28;20666;-69
2024/03/15 00:48:41;;;;;;;3.40;2.58;;;;;;;6.61;100.00;95667.19;1031877;28;20026;-69
2024/03/15 00:49:11;;;;;;;4.65;2.60;;;;;;;6.60;100.00;95662.22;1035274;28;20030;-68
2024/03/15 00:49:41;;;;;;;5.38;2.92;;;;;;;6.58;100.00;95656.47;1035858;28;20042;-68
2024/03/15 00:50:12;;;;;;;5.20;2.67;;;;;;;6.58;100.00;95656.47;1035711;28;20068;-69
2024/03/15 00:50:43;;;;;;;3.42;2.38;;;;;;;6.57;100.00;95658.28;1031305;28;20046;-69
2024/03/15 00:51:14;;;;;;;5.00;3.17;;;;;;;6.55;100.00;95657.72;1027054;28;20031;-67
2024/03/15 00:51:44;;;;;;;4.55;3.13;;;;;;;6.56;100.00;95658.50;1023708;29;20444;-68
2024/03/15 00:52:17;;;;;;;4.47;3.00;;;;;;;6.52;100.00;95652.19;1019723;29;20024;-69
2024/03/15 00:52:48;;;;;;;5.82;3.60;;;;;;;6.61;100.00;95661.19;1028503;28;20058;-67
2024/03/15 00:53:19;;;;;;;3.33;2.60;;;;;;;6.58;100.00;95657.25;1031208;28;20030;-68
2024/03/15 00:53:50;;;;;;;4.65;3.22;;;;;;;6.53;100.00;95648.56;1031772;28;20430;-68
2024/03/15 00:54:23;;;;;;;4.75;3.00;;;;;;;6.60;100.00;95659.59;1026862;28;20031;-69
2024/03/15 00:54:53;;;;;;;4.78;2.75;;;;;;;6.59;100.00;95658.03;1024241;28;20167;-68
2024/03/15 00:55:27;;;;;;;5.07;2.78;;;;;;;6.58;100.00;95659.84;1031844;28;20578;-69
2024/03/15 00:55:58;;;;;;;6.50;3.58;;;;;;;6.56;100.00;95656.69;1037189;28;20021;-69
2024/03/15 00:56:28;;;;;;;4.07;2.53;;;;;;;6.60;100.00;95659.59;1043411;28;20041;-68
2024/03/15 00:56:59;;;;;;;2.90;2.33;;;;;;;6.60;100.00;95659.59;1034856;28;20022;-66
2024/03/15 00:57:29;;;;;;;4.20;2.78;;;;;;;6.58;100.00;95657.25;1031289;28;20050;-68
2024/03/15 00:58:00;;;;;;;5.70;2.90;;;;;;;6.57;100.00;95660.06;1030668;28;20502;-68
2024/03/15 00:58:30;;;;;;;7.03;2.45;;;;;;;6.53;100.00;95651.94;1031761;28;20030;-68
2024/03/15 00:59:01;;;;;;;4.55;2.65;;;;;;;6.55;100.00;95657.72;1035430;28;20395;-68
2024/03/15 00:59:31;;;;;;;5.72;3.00;;;;;;;6.54;100.00;95656.16;1031458;28;20030;-68
2024/03/15 01:00:03;;;;;;;2.60;2.28;;;;;;;6.55;100.00;95662.94;1026284;28;20019;-69
2024/03/15 01:00:34;;;;;;;3.92;2.75;;;;;;;6.57;100.00;95665.28;1027503;28;20027;-68
2024/03/15 01:01:07;;;;;;;5.30;3.67;;;;;;;6.57;100.00;95665.28;1031495;28;20483;-68
2024/03/15 01:01:39;;;;;;;4.88;2.60;;;;;;;6.54;100.00;95661.38;1034767;28;20027;-69
2024/03/15 01:02:09;;;;;;;3.00;2.17;;;;;;;6.56;100.00;95663.72;1039443;28;20033;-69
2024/03/15 01:02:39;;;;;;;5.50;3.03;;;;;;;6.51;100.00;95655.84;1035527;28;20030;-69
2024/03/15 01:03:11;;;;;;;3.50;3.00;;;;;;;6.54;100.00;95660.56;1035276;28;20025;-71
2024/03/15 01:03:42;;;;;;;2.95;2.65;;;;;;;6.53;100.00;95658.97;1035798;28;20449;-68
2024/03/15 01:04:13;;;;;;;3.92;2.75;;;;;;;6.50;100.00;95659.44;1035315;28;20033;-68
2024/03/15 01:04:44;;;;;;;4.45;2.75;;;;;;;6.48;100.00;95654.50;1031400;28;20364;-68
2024/03/15 01:05:15;;;;;;;3.25;2.60;;;;;;;6.48;100.00;95656.31;1027812;28;20027;-68
2024/03/15 01:05:45;;;;;;;6.57;2.60;;;;;;;6.46;100.00;95661.75;1023353;28;20539;-69
2024/03/15 01:06:16;;;;;;;4.97;2.63;;;;;;;6.44;100.00;95661.22;1027678;28;20401;-67
2024/03/15 01:06:47;;;;;;;5.68;2.70;;;;;;;6.41;100.00;95651.25;1029865;28;20033;-69
2024/03/15 01:07:17;;;;;;;4.85;2.90;;;;;;;6.42;100.00;95658.03;1031312;28;20403;-68
2024/03/15 01:07:47;;;;;;;5.47;2.70;;;;;;;6.40;100.00;95654.88;1031451;28;20665;-69
2024/03/15 01:08:18;;;;;;;3.50;2.60;;;;;;;6.40;100.00;95659.31;1035768;28;20030;-69
2024/03/15 01:08:51;;;;;;;4.82;2.75;;;;;;;6.41;100.00;95660.91;1041128;28;20026;-68
2024/03/15 01:09:22;;;;;;;4.40;2.88;;;;;;;6.35;100.00;95653.00;1041135;28;20376;-69
2024/03/15 01:09:52;;;;;;;3.70;2.50;;;;;;;6.36;100.00;95659.78;1028761;28;20019;-69
2024/03/15 01:10:23;;;;;;;3.72;2.67;;;;;;;6.36;100.00;95659.78;1033197;28;20039;-69
2024/03/15 01:10:53;;;;;;;5.35;2.88;;;;;;;6.30;100.00;95652.91;1032738;28;20280;-69
2024/03/15 01:11:24;;;;;;;3.75;2.60;;;;;;;6.34;100.00;95661.06;1027846;28;20046;-69
2024/03/15 01:11:54;;;;;;;3.95;2.72;;;;;;;6.32;100.00;95658.69;1032277;28;20030;-68
2024/03/15 01:12:25;;;;;;;5.85;2.47;;;;;;;6.31;100.00;95658.94;1027383;28;20657;-69
2024/03/15 01:12:57;;;;;;;4.78;2.92;;;;;;;6.32;100.00;95658.69;1027492;28;20035;-68
2024/03/15 01:13:28;;;;;;;3.92;2.78;;;;;;;6.32;100.00;95657.88;1029511;28;20027;-68
2024/03/15 01:13:59;;;;;;;6.15;2.85;;;;;;;6.34;100.00;95661.06;1035385;28;20511;-68
2024/03/15 01:14:29;;;;;;;5.60;2.75;;;;;;;6.39;100.00;95663.72;1035557;28;20033;-68
2024/03/15 01:15:00;;;;;;;4.35;2.50;;;;;;;6.36;100.00;95659.00;1031099;28;20531;-69
2024/03/15 01:15:30;;;;;;;3.30;2.75;;;;;;;6.33;100.00;95655.03;1031517;28;20583;-68
2024/03/15 01:16:02;;;;;;;3.40;2.63;;;;;;;6.34;100.00;95661.84;1031486;28;20030;-68
2024/03/15 01:16:32;;;;;;;4.57;2.78;;;;;;;6.32;100.00;95663.88;1035237;28;20053;-68
2024/03/15 01:17:05;;;;;;;4.43;2.97;;;;;;;6.30;100.00;95655.50;1030661;28;20373;-68
2024/03/15 01:17:36;;;;;;;4.25;3.20;;;;;;;6.28;100.00;95657.56;1031378;28;20069;-67
2024/03/15 01:18:07;;;;;;;4.45;2.67;;;;;;;6.27;100.00;95658.63;1030543;28;20545;-68
2024/03/15 01:18:38;;;;;;;3.80;2.40;;;;;;;6.26;100.00;95661.44;1027635;28;20073;-68
2024/03/15 01:19:09;;;;;;;2.80;2.22;;;;;;;6.19;100.00;95648.56;1027520;28;20042;-68
2024/03/15 01:19:39;;;;;;;3.88;2.55;;;;;;;6.23;100.00;95656.69;1027245;28;20038;-67
2024/03/15 01:20:10;;;;;;;4.68;3.05;;;;;;;6.21;100.00;95656.94;1027237;28;20042;-68
2024/03/15 01:20:40;;;;;;;3.63;2.58;;;;;;;6.21;100.00;95656.94;1031195;28;20125;-69
2024/03/15 01:21:11;;;;;;;4.40;2.72;;;;;;;6.24;100.00;95658.28;1031254;28;20027;-68
2024/03/15 01:21:41;;;;;;;6.18;3.00;;;;;;;6.22;100.00;95657.72;1027368;28;20031;-68
2024/03/15 01:22:12;;;;;;;4.38;2.90;;;;;;;6.20;100.00;95660.56;1030642;28;20419;-68
2024/03/15 01:22:44;;;;;;;5.40;2.83;;;;;;;6.12;100.00;95653.94;1027407;28;20451;-68
2024/03/15 01:23:15;;;;;;;3.33;2.45;;;;;;;6.11;100.00;95648.97;1019905;28;20425;-69
2024/03/15 01:23:45;;;;;;;4.57;2.78;;;;;;;6.08;100.00;95646.84;1027751;28;20038;-70
2024/03/15 01:24:16;;;;;;;4.30;2.75;;;;;;;6.11;100.00;95660.19;1031453;28;20496;-68
2024/03/15 01:24:47;;;;;;;4.60;3.00;;;;;;;6.12;100.00;95660.97;1031909;28;20038;-69
2024/03/15 01:25:17;;;;;;;5.50;3.20;;;;;;;6.09;100.00;95664.03;1034764;28;20022;-69
2024/03/15 01:25:48;;;;;;;3.85;2.67;;;;;;;6.09;100.00;95664.03;1031693;28;20098;-68
2024/03/15 01:26:18;;;;;;;4.63;2.80;;;;;;;6.07;100.00;95655.66;1035295;28;20025;-69
2024/03/15 01:26:48;;;;;;;4.22;2.83;;;;;;;6.05;100.00;95663.72;1039553;28;20105;-68
2024/03/15 01:27:19;;;;;;;3.42;2.92;;;;;;;6.03;100.00;95659.75;1043820;28;20021;-69
2024/03/15 01:27:49;;;;;;;4.03;3.15;;;;;;;6.03;100.00;95659.75;1039267;28;20116;-68
2024/03/15 01:28:20;;;;;;;3.60;3.08;;;;;;;6.02;100.00;95663.41;1034638;28;20026;-69
2024/03/15 01:28:51;;;;;;;4.80;2.83;;;;;;;6.01;100.00;95664.44;1030910;28;20519;-68
2024/03/15 01:29:22;;;;;;;3.30;2.60;;;;;;;5.99;100.00;95664.66;1027247;28;20039;-69
2024/03/15 01:29:53;;;;;;;4.43;3.10;;;;;;;5.99;100.00;95659.44;1031386;28;20030;-68
2024/03/15 01:30:24;;;;;;;3.85;2.65;;;;;;;5.96;100.00;95653.91;1032431;28;20500;-68
2024/03/15 01:30:54;;;;;;;4.53;2.65;;;;;;;5.98;100.00;95659.69;1027054;28;20394;-69
2024/03/15 01:31:24;;;;;;;4.07;2.85;;;;;;;5.99;100.00;95666.47;1027230;28;20510;-68
2024/03/15 01:31:56;;;;;;;4.82;2.90;;;;;;;5.97;100.00;95663.31;1019231;29;20409;-69
2024/03/15 01:32:26;;;;;;;3.13;2.70;;;;;;;6.01;100.00;95664.44;1023616;28;20031;-69
2024/03/15 01:32:57;;;;;;;4.38;2.85;;;;;;;5.99;100.00;95663.88;1027020;28;20023;-68
2024/03/15 01:33:28;;;;;;;4.40;2.72;;;;;;;5.99;100.00;95659.44;1027612;28;20110;-69
2024/03/15 01:33:58;;;;;;;2.88;2.42;;;;;;;5.97;100.00;95655.50;1035258;28;20478;-68
2024/03/15 01:34:28;;;;;;;4.20;2.35;;;;;;;5.99;100.00;95662.03;1036037;28;20034;-69
2024/03/15 01:34:59;;;;;;;4.05;2.92;;;;;;;6.02;100.00;95664.19;1036203;28;20041;-70
2024/03/15 01:35:32;;;;;;;3.67;2.88;;;;;;;6.03;100.00;95657.16;1036325;28;20037;-68
2024/03/15 01:36:03;;;;;;;4.97;2.75;;;;;;;6.03;100.00;95664.97;1035672;28;20613;-68
2024/03/15 01:36:33;;;;;;;2.88;2.42;;;;;;;6.05;100.00;95662.94;1043439;28;20025;-69
2024/03/15 01:37:04;;;;;;;4.13;2.80;;;;;;;6.07;100.00;95666.88;1039578;28;20100;-68
2024/03/15 01:37:36;;;;;;;5.40;2.75;;;;;;;6.08;100.00;95667.69;1034928;28;20574;-68
2024/03/15 01:38:06;;;;;;;4.15;2.67;;;;;;;6.07;100.00;95661.69;1030377;28;20019;-69
2024/03/15 01:38:37;;;;;;;3.58;2.53;;;;;;;6.07;100.00;95661.69;1023371;28;20039;-68
2024/03/15 01:39:07;;;;;;;4.53;2.83;;;;;;;6.07;100.00;95663.47;1027483;28;20046;-68
2024/03/15 01:39:38;;;;;;;4.18;2.83;;;;;;;6.06;100.00;95665.28;1031051;28;20074;-69
2024/03/15 01:40:10;;;;;;;3.83;3.20;;;;;;;6.08;100.00;95654.66;1035324;28;20030;-68
2024/03/15 01:40:41;;;;;;;3.42;2.75;;;;;;;6.12;100.00;95658.34;1031112;28;20026;-69
2024/03/15 01:41:12;;;;;;;5.55;2.70;;;;;;;6.16;100.00;95663.88;1026818;28;20027;-68
2024/03/15 01:41:43;;;;;;;4.20;2.83;;;;;;;6.08;100.00;95652.81;1027100;28;20038;-68
2024/03/15 01:42:15;;;;;;;3.40;2.67;;;;;;;6.19;100.00;95659.00;1027324;28;20559;-68
2024/03/15 01:42:46;;;;;;;4.55;2.60;;;;;;;6.17;100.00;95661.06;1027577;28;20035;-67
2024/03/15 01:43:16;;;;;;;4.50;2.97;;;;;;;6.16;100.00;95658.66;1031130;28;20031;-69
2024/03/15 01:43:50;;;;;;;4.20;2.45;;;;;;;6.21;100.00;95656.94;1027372;28;20039;-69
2024/03/15 01:44:20;;;;;;;6.45;2.55;;;;;;;6.29;100.00;95658.38;1031144;28;20031;-69
2024/03/15 01:44:55;;;;;;;2.83;2.53;;;;;;;6.31;100.00;95659.72;1031782;28;20034;-68
2024/03/15 01:45:25;;;;;;;4.18;2.40;;;;;;;6.29;100.00;95653.94;1032039;28;20032;-69
2024/03/15 01:45:56;;;;;;;3.13;2.58;;;;;;;6.22;100.00;95649.91;1031222;28;20034;-67
2024/03/15 01:46:26;;;;;;;3.08;2.17;;;;;;;6.27;100.00;95658.63;1034249;28;20017;-69
2024/03/15 01:46:59;;;;;;;3.80;2.50;;;;;;;6.20;100.00;95644.13;1026910;28;20126;-69
2024/03/15 01:47:29;;;;;;;3.88;2.17;;;;;;;6.28;100.00;95654.97;1027444;28;20117;-68
2024/03/15 01:48:00;;;;;;;3.40;2.50;;;;;;;6.27;100.00;95652.59;1026353;28;20086;-68
2024/03/15 01:48:30;;;;;;;5.18;2.55;;;;;;;6.29;100.00;95658.38;1023027;29;20035;-70
2024/03/15 01:49:01;;;;;;;3.08;2.28;;;;;;;6.26;100.00;95649.19;1022961;28;20031;-68
2024/03/15 01:49:31;;;;;;;3.72;2.67;;;;;;;6.23;100.00;95652.28;1022519;28;20055;-68
2024/03/15 01:50:02;;;;;;;3.28;2.75;;;;;;;6.28;100.00;95657.56;1023218;28;20023;-69
2024/03/15 01:50:34;;;;;;;4.80;3.00;;;;;;;6.27;100.00;95650.78;1035107;28;20038;-69
2024/03/15 01:51:05;;;;;;;3.83;2.88;;;;;;;6.33;100.00;95654.25;1035120;28;20053;-69
2024/03/15 01:51:36;;;;;;;4.43;2.78;;;;;;;6.33;100.00;95660.25;1035085;28;20030;-69
2024/03/15 01:52:08;;;;;;;3.20;2.63;;;;;;;6.32;100.00;95657.88;1027553;28;20027;-68
2024/03/15 01:52:40;;;;;;;4.05;2.50;;;;;;;6.25;100.00;95649.44;1031183;28;20554;-69
2024/03/15 01:53:10;;;;;;;4.00;2.55;;;;;;;6.30;100.00;95665.94;1028998;28;20022;-68
2024/03/15 01:53:43;;;;;;;3.17;2.20;;;;;;;6.27;100.00;95655.19;1028056;28;20035;-69
2024/03/15 01:54:14;;;;;;;4.30;2.67;;;;;;;6.17;100.00;95650.63;1031983;28;20092;-69
2024/03/15 01:54:44;;;;;;;2.88;2.50;;;;;;;6.21;100.00;95658.78;1026828;28;20023;-68
2024/03/15 01:55:15;;;;;;;3.63;2.53;;;;;;;6.16;100.00;95648.25;1031120;28;20041;-68
2024/03/15 01:55:45;;;;;;;3.55;2.45;;;;;;;6.22;100.00;95657.72;1030981;28;20407;-67
2024/03/15 01:56:16;;;;;;;4.00;2.80;;;;;;;6.21;100.00;95646.53;1030835;28;20025;-67
2024/03/15 01:56:47;;;;;;;4.20;2.70;;;;;;;6.20;100.00;95650.13;1031255;28;20023;-68
2024/03/15 01:57:17;;;;;;;3.70;2.75;;;;;;;6.16;100.00;95649.03;1031541;28;20097;-68
2024/03/15 01:57:48;;;;;;;3.92;2.60;;;;;;;6.18;100.00;95652.22;1034864;28;20022;-68
2024/03/15 01:58:18;;;;;;;5.72;2.75;;;;;;;6.18;100.00;95652.22;1023577;28;20023;-69
2024/03/15 01:58:49;;;;;;;4.18;2.80;;;;;;;6.25;100.00;95657.25;1027365;28;20471;-69
2024/03/15 01:59:19;;;;;;;4.30;2.65;;;;;;;6.21;100.00;95643.91;1026980;28;20504;-69
2024/03/15 01:59:50;;;;;;;4.57;2.70;;;;;;;6.26;100.00;95653.63;1027016;28;20122;-69
2024/03/15 02:00:21;;;;;;;3.25;2.65;;;;;;;6.24;100.00;95655.69;1034891;28;20574;-69
2024/03/15 02:00:51;;;;;;;2.72;2.40;;;;;;;6.25;100.00;95654.66;1026996;28;20071;-68
2024/03/15 02:01:22;;;;;;;3.67;2.30;;;;;;;6.26;100.00;95659.63;1031145;28;20029;-69
2024/03/15 02:02:02;;;;;;;3.63;2.40;;;;;;;6.26;100.00;95657.00;1026905;28;20456;-69
2024/03/15 02:02:33;;;;;;;;;;;;;;;6.26;100.00;95657.00;1027796;28;20408;-69
2024/03/15 02:03:03;;;;;;;4.68;2.65;;;;;;;6.23;100.00;95648.88;1026989;28;19946;-68
2024/03/15 02:03:34;;;;;;;3.78;2.53;;;;;;;6.25;100.00;95655.44;1031140;28;20025;-69
2024/03/15 02:04:06;;;;;;;3.38;2.33;;;;;;;6.23;100.00;95656.69;1026839;28;20034;-68
2024/03/15 02:04:36;;;;;;;4.65;2.90;;;;;;;6.21;100.00;95643.91;1039130;28;20017;-68
2024/03/15 02:05:07;;;;;;;4.10;2.30;;;;;;;6.22;100.00;95653.31;1038976;28;20486;-69
2024/03/15 02:05:37;;;;;;;3.80;2.53;;;;;;;6.26;100.00;95653.63;1038927;28;20029;-69
2024/03/15 02:06:08;;;;;;;4.30;2.83;;;;;;;6.28;100.00;95659.41;1034623;28;20438;-69
2024/03/15 02:06:39;;;;;;;3.60;2.50;;;;;;;6.28;100.00;95651.59;1031123;28;20081;-69
2024/03/15 02:07:09;;;;;;;5.72;2.58;;;;;;;6.29;100.00;95653.16;1031215;28;20026;-68
2024/03/15 02:07:40;;;;;;;2.95;2.40;;;;;;;6.31;100.00;95657.09;1034967;28;20120;-68
2024/03/15 02:08:17;;;;;;;3.92;2.65;;;;;;;6.29;100.00;95656.53;1034153;28;20030;-68
2024/03/15 02:08:47;;;;;;;4.65;2.45;;;;;;;6.28;100.00;95654.97;1037125;28;20024;-68
2024/03/15 02:09:19;;;;;;;5.15;2.80;;;;;;;6.29;100.00;95655.75;1039143;28;20383;-68
2024/03/15 02:09:50;;;;;;;2.88;2.60;;;;;;;6.29;100.00;95664.34;1039142;28;20060;-69
2024/03/15 02:10:20;;;;;;;3.92;2.70;;;;;;;6.12;100.00;95637.53;1030672;28;20019;-70
2024/03/15 02:10:51;;;;;;;3.08;2.38;;;;;;;6.26;100.00;95659.63;1031190;28;20126;-68
2024/03/15 02:11:21;;;;;;;3.15;2.60;;;;;;;6.29;100.00;95656.53;1035075;28;20018;-68
2024/03/15 02:11:53;;;;;;;3.47;2.13;;;;;;;6.29;100.00;95659.16;1031355;28;20100;-68
2024/03/15 02:12:24;;;;;;;2.17;2.03;;;;;;;6.23;100.00;95654.88;1034908;28;20153;-68
2024/03/15 02:12:55;;;;;;;5.05;2.70;;;;;;;6.27;100.00;95657.78;1031104;28;20493;-68
2024/03/15 02:13:25;;;;;;;2.83;2.22;;;;;;;6.26;100.00;95659.63;1027282;28;20025;-69
2024/03/15 02:13:56;;;;;;;2.50;2.13;;;;;;;6.21;100.00;95649.13;1031113;28;20545;-68
2024/03/15 02:14:27;;;;;;;3.13;2.47;;;;;;;6.25;100.00;95652.84;1027105;28;20023;-69
2024/03/15 02:14:57;;;;;;;4.50;2.67;;;;;;;6.25;100.00;95662.47;1031067;28;20591;-68
2024/03/15 02:15:27;;;;;;;6.28;2.42;;;;;;;6.24;100.00;95653.09;1031036;28;20369;-67
2024/03/15 02:15:58;;;;;;;4.65;2.67;;;;;;;6.23;100.00;95654.88;1035463;28;20029;-69
2024/03/15 02:16:28;;;;;;;3.45;2.47;;;;;;;6.24;100.00;95650.47;1047045;28;20024;-68
2024/03/15 02:16:59;;;;;;;3.95;2.63;;;;;;;6.26;100.00;95657.00;1043104;28;20040;-69
2024/03/15 02:17:29;;;;;;;3.80;2.20;;;;;;;6.26;100.00;95658.84;1043180;28;20044;-69
2024/03/15 02:18:00;;;;;;;4.30;2.75;;;;;;;6.26;100.00;95657.00;1038015;28;20037;-68
2024/03/15 02:18:31;;;;;;;4.15;2.10;;;;;;;6.28;100.00;95662.00;1033537;28;20141;-68
2024/03/15 02:19:01;;;;;;;3.63;1.90;;;;;;;6.29;100.00;95659.16;1034413;28;20026;-69
2024/03/15 02:19:32;;;;;;;3.72;2.20;;;;;;;6.29;100.00;95656.53;1030655;28;20401;-69
2024/03/15 02:20:06;;;;;;;3.22;2.53;;;;;;;6.29;100.00;95661.75;1031126;28;20105;-69
2024/03/15 02:20:37;;;;;;;2.97;2.30;;;;;;;6.28;100.00;95654.97;1020493;28;20027;-68
2024/03/15 02:21:07;;;;;;;4.25;2.72;;;;;;;6.35;100.00;95655.59;1027667;28;20480;-68
2024/03/15 02:21:37;;;;;;;2.88;2.45;;;;;;;6.33;100.00;95654.25;1030950;28;20030;-69
2024/03/15 02:22:08;;;;;;;4.95;2.70;;;;;;;6.35;100.00;95658.19;1033196;28;20140;-66
2024/03/15 02:22:39;;;;;;;4.40;2.55;;;;;;;6.35;100.00;95663.41;1038261;28;20498;-69
2024/03/15 02:23:10;;;;;;;2.30;2.10;;;;;;;6.35;100.00;95662.63;1039334;28;20064;-69
2024/03/15 02:23:41;;;;;;;5.03;2.38;;;;;;;6.34;100.00;95655.84;1041025;28;20041;-69
2024/03/15 02:24:12;;;;;;;3.42;2.58;;;;;;;6.35;100.00;95652.22;1037246;28;20034;-68
2024/03/15 02:24:42;;;;;;;5.22;2.53;;;;;;;6.36;100.00;95659.00;1036540;28;20093;-69
2024/03/15 02:25:13;;;;;;;3.42;2.22;;;;;;;6.36;100.00;95654.56;1035321;28;20034;-68
2024/03/15 02:25:43;;;;;;;4.03;2.53;;;;;;;6.30;100.00;95650.28;1037343;28;20498;-68